Overview Statistics Trail Chart Weather Telemetry Raw packets
 

This is the latest recevied weather packets stored in our database for station/object 4S6DRJ-13. If no packets are shown the sender has not sent any weather packets the latest 10 day(s).

<< 429 430 431 432 433 434 435 >>
Time Temp. Humidity Pressure Rain* Wind** Luminosity Snow
1787807232 30.56° C 74% 1011 hPa 0 mm 2.68 m/s, 344° 916 W/m² -
1787807171 30.56° C 75% 1011.2 hPa 0 mm 1.79 m/s, 273° 1129 W/m² -
1787807110 30.56° C 75% 1011.2 hPa 0 mm 1.79 m/s, 307° 1123 W/m² -
1787807049 30° C 76% 1011.2 hPa 0 mm 0.89 m/s, 237° 332 W/m² -
1787806988 30° C 76% 1011.3 hPa 0 mm 0.89 m/s, 123° 324 W/m² -
1787806928 30° C 75% 1011.2 hPa 0 mm 2.24 m/s, 305° 1122 W/m² -
1787806867 30° C 76% 1011 hPa 0 mm 1.34 m/s, 205° 497 W/m² -
1787806805 30° C 77% 1011.4 hPa 0 mm 2.24 m/s, 298° 1127 W/m² -
1787806745 30° C 76% 1011.2 hPa 0 mm 1.34 m/s, 214° 613 W/m² -
1787806683 30° C 76% 1011.4 hPa 0 mm 2.68 m/s, 265° 1120 W/m² -
1787806622 30° C 77% 1011.3 hPa 0 mm 2.24 m/s, 240° 552 W/m² -
1787806562 30° C 77% 1011.3 hPa 0 mm 0.89 m/s, 49° 1107 W/m² -
1787806501 30° C 77% 1011.3 hPa 0 mm 1.79 m/s, 225° 1112 W/m² -
1787806439 30° C 76% 1011.3 hPa 0 mm 2.24 m/s, 274° 1115 W/m² -
1787806378 30° C 76% 1011.2 hPa 0 mm 1.79 m/s, 219° 435 W/m² -
1787806318 30° C 76% 1011.2 hPa 0 mm 2.24 m/s, 302° 1113 W/m² -
1787806256 30° C 77% 1011.4 hPa 0 mm 1.79 m/s, 351° 727 W/m² -
1787806196 29.44° C 77% 1011.3 hPa 0 mm 1.34 m/s, 247° 358 W/m² -
1787806134 29.44° C 78% 1011.3 hPa 0 mm 2.24 m/s, 237° 1122 W/m² -
1787806074 29.44° C 78% 1011.3 hPa 0 mm 2.68 m/s, 287° 1109 W/m² -
1787806012 29.44° C 78% 1011.3 hPa 0 mm 0.89 m/s, 185° 594 W/m² -
1787805951 29.44° C 78% 1011.1 hPa 0 mm 2.68 m/s, 194° 977 W/m² -
1787805890 29.44° C 79% 1011.2 hPa 0 mm 2.24 m/s, 219° 835 W/m² -
1787805829 29.44° C 79% 1011.3 hPa 0 mm 2.68 m/s, 285° 863 W/m² -
1787805768 29.44° C 78% 1011.4 hPa 0 mm 0.89 m/s, 261° 615 W/m² -

* Rain latest hour (hover to see other rain measurements)
** Current wind speed in m/s (hover to see current wind gust speed)